Berlin — 9HA2295 — position and weather

sailwx.info

Track history (hours):
 
Tides and Currents Weather Stations Pressure Air Temp Water Temp Dewpoint Dewpoint Depression Visibility Wind Speed Wind Dir Waves Ship Positions

Berlin

Last reported at 2016-Dec-01 07:32 UTC. Time now 2016-Dec-02 18:06 UTC.
Position N 36°05' W 005°19'.

Length 140 m; draft 5 m.

Type: Ship. MMSI: 248277000.

Date/timePositionNaut miles runAvg speedWind from/ knotsBaromVisibWave heightAir tempDewpointWater temp
2016-Dec-01 07:32N 36°05' W 005°19'5 2.0
2016-Dec-01 05:08N 36°04' W 005°14'110 2.6
2016-Nov-29 10:31N 36°31' W 003°01'1212.0
2016-Nov-29 09:32N 36°29' W 002°46'1111.4
2016-Nov-29 08:33N 36°28' W 002°32'9111.1
2016-Nov-29 00:22N 37°18' W 000°57'1011.7
2016-Nov-28 23:33N 37°24' W 000°48'1211.6
2016-Nov-28 22:33N 37°32' W 000°37'1212.0
2016-Nov-28 21:33N 37°43' W 000°31'1212.3
2016-Nov-28 20:33N 37°55' W 000°27'  
2016-Nov-26 04:26N 36°20' E 013°50'1314.6
2016-Nov-26 03:33N 36°14' E 014°04'1514.9
2016-Nov-26 02:33N 36°08' E 014°21'1414.1
2016-Nov-26 01:33N 35°57' E 014°33'2 0.1
2016-Nov-25 10:33N 35°55' E 014°33'1514.4
2016-Nov-25 09:31N 36°06' E 014°45'10411.3
2016-Nov-25 00:17N 37°27' E 016°07'911.6
2016-Nov-24 23:30N 37°34' E 016°14'421 8.8
2016-Nov-22 23:33N 44°25' E 014°13'1313.0
2016-Nov-22 22:33N 44°34' E 013°60'2512.6
2016-Nov-22 20:33N 44°52' E 013°34'1312.7
2016-Nov-22 19:33N 44°60' E 013°20'2713.5
2016-Nov-22 17:33N 45°15' E 012°49'1413.6
2016-Nov-22 16:33N 45°23' E 012°32'9 8.7
2016-Nov-22 15:33N 45°26' E 012°21'2 1.6
2016-Nov-22 14:31N 45°26' E 012°19'0 0.0
2016-Nov-22 13:31N 45°26' E 012°19'0 0.0
2016-Nov-22 10:31N 45°26' E 012°19'0 0.0
2016-Nov-22 09:31N 45°26' E 012°19'0 0.0
2016-Nov-22 08:31N 45°26' E 012°19'2 2.3
2016-Nov-22 07:33N 45°25' E 012°22'2010.0
2016-Nov-22 05:33N 45°16' E 012°46'1313.5
2016-Nov-22 04:34N 45°07' E 013°01'1413.4
2016-Nov-22 03:33N 45°02' E 013°19'1413.9
2016-Nov-22 02:34N 44°53' E 013°33'46 9.1
2016-Nov-21 21:33N 45°18' E 014°27'  
Track history (hours):
 
Tides and Currents Weather Stations Pressure Air Temp Water Temp Dewpoint Dewpoint Depression Visibility Wind Speed Wind Dir Waves Ship Positions

Berlin

Last reported at 2016-Dec-01 07:32 UTC. Time now 2016-Dec-02 18:06 UTC.
Position N 36°05' W 005°19'.

Length 140 m; draft 5 m.

Type: Ship. MMSI: 248277000.

Date/timePositionNaut miles runAvg speedWind from/ knotsBaromVisibWave heightAir tempDewpointWater temp
2016-Dec-01 07:32N 36°05' W 005°19'5 2.0
2016-Dec-01 05:08N 36°04' W 005°14'110 2.6
2016-Nov-29 10:31N 36°31' W 003°01'1212.0
2016-Nov-29 09:32N 36°29' W 002°46'1111.4
2016-Nov-29 08:33N 36°28' W 002°32'9111.1
2016-Nov-29 00:22N 37°18' W 000°57'1011.7
2016-Nov-28 23:33N 37°24' W 000°48'1211.6
2016-Nov-28 22:33N 37°32' W 000°37'1212.0
2016-Nov-28 21:33N 37°43' W 000°31'1212.3
2016-Nov-28 20:33N 37°55' W 000°27'  
2016-Nov-26 04:26N 36°20' E 013°50'1314.6
2016-Nov-26 03:33N 36°14' E 014°04'1514.9
2016-Nov-26 02:33N 36°08' E 014°21'1414.1
2016-Nov-26 01:33N 35°57' E 014°33'2 0.1
2016-Nov-25 10:33N 35°55' E 014°33'1514.4
2016-Nov-25 09:31N 36°06' E 014°45'10411.3
2016-Nov-25 00:17N 37°27' E 016°07'911.6
2016-Nov-24 23:30N 37°34' E 016°14'421 8.8
2016-Nov-22 23:33N 44°25' E 014°13'1313.0
2016-Nov-22 22:33N 44°34' E 013°60'2512.6
2016-Nov-22 20:33N 44°52' E 013°34'1312.7
2016-Nov-22 19:33N 44°60' E 013°20'2713.5
2016-Nov-22 17:33N 45°15' E 012°49'1413.6
2016-Nov-22 16:33N 45°23' E 012°32'9 8.7
2016-Nov-22 15:33N 45°26' E 012°21'2 1.6
2016-Nov-22 14:31N 45°26' E 012°19'0 0.0
2016-Nov-22 13:31N 45°26' E 012°19'0 0.0
2016-Nov-22 10:31N 45°26' E 012°19'0 0.0
2016-Nov-22 09:31N 45°26' E 012°19'0 0.0
2016-Nov-22 08:31N 45°26' E 012°19'2 2.3
2016-Nov-22 07:33N 45°25' E 012°22'2010.0
2016-Nov-22 05:33N 45°16' E 012°46'1313.5
2016-Nov-22 04:34N 45°07' E 013°01'1413.4
2016-Nov-22 03:33N 45°02' E 013°19'1413.9
2016-Nov-22 02:34N 44°53' E 013°33'46 9.1
2016-Nov-21 21:33N 45°18' E 014°27'  

Dump ship's entire track history